sensor_id;sensor_type;location;lat;lon;timestamp;temperature;humidity
14604;DHT22;7388;51.078;13.740;2023-08-07T00:00:56;20.90;53.10
14604;DHT22;7388;51.078;13.740;2023-08-07T00:03:22;20.90;53.20
14604;DHT22;7388;51.078;13.740;2023-08-07T00:05:48;20.90;53.20
14604;DHT22;7388;51.078;13.740;2023-08-07T00:08:14;20.90;53.10
14604;DHT22;7388;51.078;13.740;2023-08-07T00:10:40;20.80;53.20
14604;DHT22;7388;51.078;13.740;2023-08-07T00:13:06;20.90;53.20
14604;DHT22;7388;51.078;13.740;2023-08-07T00:15:32;20.80;53.10
14604;DHT22;7388;51.078;13.740;2023-08-07T00:18:01;20.80;52.90
14604;DHT22;7388;51.078;13.740;2023-08-07T00:20:27;20.80;53.20
14604;DHT22;7388;51.078;13.740;2023-08-07T00:22:53;20.80;53.30
14604;DHT22;7388;51.078;13.740;2023-08-07T00:25:18;20.80;53.20
14604;DHT22;7388;51.078;13.740;2023-08-07T00:27:44;20.90;53.30
14604;DHT22;7388;51.078;13.740;2023-08-07T00:30:11;20.90;53.00
14604;DHT22;7388;51.078;13.740;2023-08-07T00:32:37;20.80;52.90
14604;DHT22;7388;51.078;13.740;2023-08-07T00:35:03;20.80;53.00
14604;DHT22;7388;51.078;13.740;2023-08-07T00:37:30;20.80;53.00
14604;DHT22;7388;51.078;13.740;2023-08-07T00:39:56;20.80;53.00
14604;DHT22;7388;51.078;13.740;2023-08-07T00:42:21;20.80;52.80
14604;DHT22;7388;51.078;13.740;2023-08-07T00:44:47;20.70;53.00
14604;DHT22;7388;51.078;13.740;2023-08-07T00:47:13;20.70;53.20
14604;DHT22;7388;51.078;13.740;2023-08-07T00:49:39;20.80;53.00
14604;DHT22;7388;51.078;13.740;2023-08-07T00:52:05;20.80;52.90
14604;DHT22;7388;51.078;13.740;2023-08-07T00:54:32;20.70;53.20
14604;DHT22;7388;51.078;13.740;2023-08-07T00:57:12;20.70;53.20
14604;DHT22;7388;51.078;13.740;2023-08-07T00:59:40;20.70;53.10
14604;DHT22;7388;51.078;13.740;2023-08-07T01:02:07;20.70;53.20
14604;DHT22;7388;51.078;13.740;2023-08-07T01:04:33;20.70;53.10
14604;DHT22;7388;51.078;13.740;2023-08-07T01:06:59;20.60;53.30
14604;DHT22;7388;51.078;13.740;2023-08-07T01:09:25;20.50;53.40
14604;DHT22;7388;51.078;13.740;2023-08-07T01:12:13;20.60;53.50
14604;DHT22;7388;51.078;13.740;2023-08-07T01:17:20;20.60;53.40
14604;DHT22;7388;51.078;13.740;2023-08-07T01:19:47;20.50;53.60
14604;DHT22;7388;51.078;13.740;2023-08-07T01:22:15;20.50;53.60
14604;DHT22;7388;51.078;13.740;2023-08-07T01:24:46;20.50;54.10
14604;DHT22;7388;51.078;13.740;2023-08-07T01:29:47;20.60;53.80
14604;DHT22;7388;51.078;13.740;2023-08-07T01:32:20;20.50;53.60
14604;DHT22;7388;51.078;13.740;2023-08-07T01:34:48;20.50;53.60
14604;DHT22;7388;51.078;13.740;2023-08-07T01:37:15;20.50;53.70
14604;DHT22;7388;51.078;13.740;2023-08-07T01:39:43;20.50;53.70
14604;DHT22;7388;51.078;13.740;2023-08-07T01:42:11;20.50;53.90
14604;DHT22;7388;51.078;13.740;2023-08-07T01:44:37;20.50;53.60
14604;DHT22;7388;51.078;13.740;2023-08-07T01:47:03;20.40;53.20
14604;DHT22;7388;51.078;13.740;2023-08-07T01:49:29;20.40;53.70
14604;DHT22;7388;51.078;13.740;2023-08-07T01:51:55;20.40;53.80
14604;DHT22;7388;51.078;13.740;2023-08-07T01:54:21;20.40;54.00
14604;DHT22;7388;51.078;13.740;2023-08-07T01:56:47;20.40;54.10
14604;DHT22;7388;51.078;13.740;2023-08-07T01:59:12;20.40;54.20
14604;DHT22;7388;51.078;13.740;2023-08-07T02:01:38;20.40;54.50
14604;DHT22;7388;51.078;13.740;2023-08-07T02:04:04;20.50;54.30
14604;DHT22;7388;51.078;13.740;2023-08-07T02:06:30;20.40;54.10
14604;DHT22;7388;51.078;13.740;2023-08-07T02:08:55;20.50;54.30
14604;DHT22;7388;51.078;13.740;2023-08-07T02:11:22;20.50;54.20
14604;DHT22;7388;51.078;13.740;2023-08-07T02:13:48;20.50;54.30
14604;DHT22;7388;51.078;13.740;2023-08-07T02:16:14;20.50;54.30
14604;DHT22;7388;51.078;13.740;2023-08-07T02:18:39;20.60;54.20
14604;DHT22;7388;51.078;13.740;2023-08-07T02:21:05;20.60;54.30
14604;DHT22;7388;51.078;13.740;2023-08-07T02:23:31;20.60;54.10
14604;DHT22;7388;51.078;13.740;2023-08-07T02:25:57;20.60;54.10
14604;DHT22;7388;51.078;13.740;2023-08-07T02:28:23;20.70;54.20
14604;DHT22;7388;51.078;13.740;2023-08-07T02:30:49;20.70;54.20
14604;DHT22;7388;51.078;13.740;2023-08-07T02:33:16;20.70;54.10
14604;DHT22;7388;51.078;13.740;2023-08-07T02:35:42;20.70;53.90
14604;DHT22;7388;51.078;13.740;2023-08-07T02:38:08;20.70;54.00
14604;DHT22;7388;51.078;13.740;2023-08-07T02:40:34;20.70;53.90
14604;DHT22;7388;51.078;13.740;2023-08-07T02:43:00;20.70;53.90
14604;DHT22;7388;51.078;13.740;2023-08-07T02:45:25;20.70;54.00
14604;DHT22;7388;51.078;13.740;2023-08-07T02:47:51;20.70;54.00
14604;DHT22;7388;51.078;13.740;2023-08-07T02:50:17;20.70;53.90
14604;DHT22;7388;51.078;13.740;2023-08-07T02:52:43;20.70;54.00
14604;DHT22;7388;51.078;13.740;2023-08-07T02:55:09;20.70;54.10
14604;DHT22;7388;51.078;13.740;2023-08-07T02:57:35;20.70;53.90
14604;DHT22;7388;51.078;13.740;2023-08-07T03:00:00;20.70;53.80
14604;DHT22;7388;51.078;13.740;2023-08-07T03:02:26;20.70;54.00
14604;DHT22;7388;51.078;13.740;2023-08-07T03:04:52;20.70;54.10
14604;DHT22;7388;51.078;13.740;2023-08-07T03:07:18;20.70;54.20
14604;DHT22;7388;51.078;13.740;2023-08-07T03:09:47;20.80;54.30
14604;DHT22;7388;51.078;13.740;2023-08-07T03:12:13;20.80;54.20
14604;DHT22;7388;51.078;13.740;2023-08-07T03:14:38;20.80;54.30
14604;DHT22;7388;51.078;13.740;2023-08-07T03:17:04;20.80;54.10
14604;DHT22;7388;51.078;13.740;2023-08-07T03:19:30;20.70;53.00
14604;DHT22;7388;51.078;13.740;2023-08-07T03:21:56;20.60;52.70
14604;DHT22;7388;51.078;13.740;2023-08-07T03:24:22;20.50;53.20
14604;DHT22;7388;51.078;13.740;2023-08-07T03:26:48;20.40;53.10
14604;DHT22;7388;51.078;13.740;2023-08-07T03:29:14;20.40;52.80
14604;DHT22;7388;51.078;13.740;2023-08-07T03:31:40;20.30;53.20
14604;DHT22;7388;51.078;13.740;2023-08-07T03:34:06;20.30;53.30
14604;DHT22;7388;51.078;13.740;2023-08-07T03:36:32;20.30;53.20
14604;DHT22;7388;51.078;13.740;2023-08-07T03:38:58;20.20;53.20
14604;DHT22;7388;51.078;13.740;2023-08-07T03:41:23;20.20;53.50
14604;DHT22;7388;51.078;13.740;2023-08-07T03:43:49;20.20;53.50
14604;DHT22;7388;51.078;13.740;2023-08-07T03:46:15;20.20;53.40
14604;DHT22;7388;51.078;13.740;2023-08-07T03:48:41;20.20;53.50
14604;DHT22;7388;51.078;13.740;2023-08-07T03:51:07;20.20;53.70
14604;DHT22;7388;51.078;13.740;2023-08-07T03:53:37;20.20;53.90
14604;DHT22;7388;51.078;13.740;2023-08-07T03:56:03;20.30;53.80
14604;DHT22;7388;51.078;13.740;2023-08-07T03:58:29;20.30;53.40
14604;DHT22;7388;51.078;13.740;2023-08-07T04:00:55;20.30;53.30
14604;DHT22;7388;51.078;13.740;2023-08-07T04:03:21;20.20;53.00
14604;DHT22;7388;51.078;13.740;2023-08-07T04:05:51;20.10;53.30
14604;DHT22;7388;51.078;13.740;2023-08-07T04:08:16;20.20;53.70
14604;DHT22;7388;51.078;13.740;2023-08-07T04:10:42;20.20;53.90
14604;DHT22;7388;51.078;13.740;2023-08-07T04:13:08;20.20;53.90
14604;DHT22;7388;51.078;13.740;2023-08-07T04:15:34;20.30;53.90
14604;DHT22;7388;51.078;13.740;2023-08-07T04:18:00;20.30;53.90
14604;DHT22;7388;51.078;13.740;2023-08-07T04:20:26;20.30;53.90
14604;DHT22;7388;51.078;13.740;2023-08-07T04:22:52;20.30;54.00
14604;DHT22;7388;51.078;13.740;2023-08-07T04:25:18;20.30;53.70
14604;DHT22;7388;51.078;13.740;2023-08-07T04:27:43;20.30;53.70
14604;DHT22;7388;51.078;13.740;2023-08-07T04:30:10;20.30;53.80
14604;DHT22;7388;51.078;13.740;2023-08-07T04:32:36;20.30;54.00
14604;DHT22;7388;51.078;13.740;2023-08-07T04:35:02;20.30;54.10
14604;DHT22;7388;51.078;13.740;2023-08-07T04:37:28;20.30;54.20
14604;DHT22;7388;51.078;13.740;2023-08-07T04:39:55;20.30;54.20
14604;DHT22;7388;51.078;13.740;2023-08-07T04:42:22;20.30;54.20
14604;DHT22;7388;51.078;13.740;2023-08-07T04:44:48;20.30;54.40
14604;DHT22;7388;51.078;13.740;2023-08-07T04:47:14;20.40;54.30
14604;DHT22;7388;51.078;13.740;2023-08-07T04:49:39;20.40;54.30
14604;DHT22;7388;51.078;13.740;2023-08-07T04:52:05;20.40;54.50
14604;DHT22;7388;51.078;13.740;2023-08-07T04:54:31;20.40;54.40
14604;DHT22;7388;51.078;13.740;2023-08-07T04:56:57;20.40;54.50
14604;DHT22;7388;51.078;13.740;2023-08-07T04:59:23;20.40;54.10
14604;DHT22;7388;51.078;13.740;2023-08-07T05:01:49;20.40;54.40
14604;DHT22;7388;51.078;13.740;2023-08-07T05:04:14;20.40;54.40
14604;DHT22;7388;51.078;13.740;2023-08-07T05:06:40;20.50;54.10
14604;DHT22;7388;51.078;13.740;2023-08-07T05:09:06;20.40;54.10
14604;DHT22;7388;51.078;13.740;2023-08-07T05:11:32;20.50;54.50
14604;DHT22;7388;51.078;13.740;2023-08-07T05:13:59;20.50;54.70
14604;DHT22;7388;51.078;13.740;2023-08-07T05:16:25;20.50;54.60
14604;DHT22;7388;51.078;13.740;2023-08-07T05:18:50;20.60;54.50
14604;DHT22;7388;51.078;13.740;2023-08-07T05:21:17;20.50;54.30
14604;DHT22;7388;51.078;13.740;2023-08-07T05:23:42;20.40;54.10
14604;DHT22;7388;51.078;13.740;2023-08-07T05:26:08;20.40;54.30
14604;DHT22;7388;51.078;13.740;2023-08-07T05:28:34;20.40;54.50
14604;DHT22;7388;51.078;13.740;2023-08-07T05:31:00;20.40;54.60
14604;DHT22;7388;51.078;13.740;2023-08-07T05:33:26;20.40;54.40
14604;DHT22;7388;51.078;13.740;2023-08-07T05:35:51;20.40;54.50
14604;DHT22;7388;51.078;13.740;2023-08-07T05:38:18;20.40;54.70
14604;DHT22;7388;51.078;13.740;2023-08-07T05:40:44;20.50;54.50
14604;DHT22;7388;51.078;13.740;2023-08-07T05:43:10;20.50;54.50
14604;DHT22;7388;51.078;13.740;2023-08-07T05:45:36;20.50;54.40
14604;DHT22;7388;51.078;13.740;2023-08-07T05:48:02;20.50;54.60
14604;DHT22;7388;51.078;13.740;2023-08-07T05:50:28;20.50;54.50
14604;DHT22;7388;51.078;13.740;2023-08-07T05:52:54;20.50;54.50
14604;DHT22;7388;51.078;13.740;2023-08-07T05:55:20;20.50;54.30
14604;DHT22;7388;51.078;13.740;2023-08-07T05:57:46;20.50;54.50
14604;DHT22;7388;51.078;13.740;2023-08-07T06:00:12;20.50;54.80
14604;DHT22;7388;51.078;13.740;2023-08-07T06:02:43;20.50;55.00
14604;DHT22;7388;51.078;13.740;2023-08-07T06:05:08;20.50;54.50
14604;DHT22;7388;51.078;13.740;2023-08-07T06:07:36;20.50;54.60
14604;DHT22;7388;51.078;13.740;2023-08-07T06:10:02;20.60;54.50
14604;DHT22;7388;51.078;13.740;2023-08-07T06:12:28;20.60;54.40
14604;DHT22;7388;51.078;13.740;2023-08-07T06:14:53;20.60;54.40
14604;DHT22;7388;51.078;13.740;2023-08-07T06:17:19;20.60;54.20
14604;DHT22;7388;51.078;13.740;2023-08-07T06:19:45;20.60;54.20
14604;DHT22;7388;51.078;13.740;2023-08-07T06:22:11;20.60;54.00
14604;DHT22;7388;51.078;13.740;2023-08-07T06:24:37;20.60;54.20
14604;DHT22;7388;51.078;13.740;2023-08-07T06:27:03;20.60;53.90
14604;DHT22;7388;51.078;13.740;2023-08-07T06:29:29;20.60;54.00
14604;DHT22;7388;51.078;13.740;2023-08-07T06:31:55;20.60;54.40
14604;DHT22;7388;51.078;13.740;2023-08-07T06:34:21;20.60;54.00
14604;DHT22;7388;51.078;13.740;2023-08-07T06:36:47;20.60;53.60
14604;DHT22;7388;51.078;13.740;2023-08-07T06:39:12;20.60;53.90
14604;DHT22;7388;51.078;13.740;2023-08-07T06:41:38;20.60;54.00
14604;DHT22;7388;51.078;13.740;2023-08-07T06:44:05;20.60;54.10
14604;DHT22;7388;51.078;13.740;2023-08-07T06:46:30;20.70;54.10
14604;DHT22;7388;51.078;13.740;2023-08-07T06:48:56;20.70;54.00
14604;DHT22;7388;51.078;13.740;2023-08-07T06:51:22;20.70;54.10
14604;DHT22;7388;51.078;13.740;2023-08-07T06:53:48;20.80;53.50
14604;DHT22;7388;51.078;13.740;2023-08-07T06:56:14;20.80;53.40
14604;DHT22;7388;51.078;13.740;2023-08-07T06:58:39;20.80;53.40
14604;DHT22;7388;51.078;13.740;2023-08-07T07:01:05;20.80;53.60
14604;DHT22;7388;51.078;13.740;2023-08-07T07:03:31;20.80;53.60
14604;DHT22;7388;51.078;13.740;2023-08-07T07:05:57;20.90;53.60
14604;DHT22;7388;51.078;13.740;2023-08-07T07:08:23;21.00;53.50
14604;DHT22;7388;51.078;13.740;2023-08-07T07:10:49;21.10;53.60
14604;DHT22;7388;51.078;13.740;2023-08-07T07:13:15;21.00;53.30
14604;DHT22;7388;51.078;13.740;2023-08-07T07:15:40;21.10;53.00
14604;DHT22;7388;51.078;13.740;2023-08-07T07:18:06;21.20;52.80
14604;DHT22;7388;51.078;13.740;2023-08-07T07:20:33;21.20;53.10
14604;DHT22;7388;51.078;13.740;2023-08-07T07:22:59;21.20;51.50
14604;DHT22;7388;51.078;13.740;2023-08-07T07:25:25;21.20;52.10
14604;DHT22;7388;51.078;13.740;2023-08-07T07:27:51;21.20;51.90
14604;DHT22;7388;51.078;13.740;2023-08-07T07:30:17;21.30;52.10
14604;DHT22;7388;51.078;13.740;2023-08-07T07:32:42;21.20;51.80
14604;DHT22;7388;51.078;13.740;2023-08-07T07:35:08;21.30;52.00
14604;DHT22;7388;51.078;13.740;2023-08-07T07:37:34;21.40;52.00
14604;DHT22;7388;51.078;13.740;2023-08-07T07:40:00;21.40;52.30
14604;DHT22;7388;51.078;13.740;2023-08-07T07:42:26;21.40;50.90
14604;DHT22;7388;51.078;13.740;2023-08-07T07:44:52;21.50;51.70
14604;DHT22;7388;51.078;13.740;2023-08-07T07:47:17;21.60;51.40
14604;DHT22;7388;51.078;13.740;2023-08-07T07:49:45;21.70;50.90
14604;DHT22;7388;51.078;13.740;2023-08-07T07:52:15;21.70;50.00
14604;DHT22;7388;51.078;13.740;2023-08-07T07:54:41;21.70;50.20
14604;DHT22;7388;51.078;13.740;2023-08-07T07:57:06;21.60;50.30
14604;DHT22;7388;51.078;13.740;2023-08-07T07:59:32;21.60;49.20
14604;DHT22;7388;51.078;13.740;2023-08-07T08:01:58;21.60;50.00
14604;DHT22;7388;51.078;13.740;2023-08-07T08:04:24;21.60;49.80
14604;DHT22;7388;51.078;13.740;2023-08-07T08:06:50;21.70;50.10
14604;DHT22;7388;51.078;13.740;2023-08-07T08:09:15;21.70;50.00
14604;DHT22;7388;51.078;13.740;2023-08-07T08:11:41;21.80;50.60
14604;DHT22;7388;51.078;13.740;2023-08-07T08:14:07;21.90;49.70
14604;DHT22;7388;51.078;13.740;2023-08-07T08:16:33;22.00;49.50
14604;DHT22;7388;51.078;13.740;2023-08-07T08:18:59;22.10;48.80
14604;DHT22;7388;51.078;13.740;2023-08-07T08:21:24;22.10;48.00
14604;DHT22;7388;51.078;13.740;2023-08-07T08:23:50;22.20;48.90
14604;DHT22;7388;51.078;13.740;2023-08-07T08:26:16;22.30;47.80
14604;DHT22;7388;51.078;13.740;2023-08-07T08:28:42;22.30;48.30
14604;DHT22;7388;51.078;13.740;2023-08-07T08:31:07;22.40;48.80
14604;DHT22;7388;51.078;13.740;2023-08-07T08:33:34;22.30;47.70
14604;DHT22;7388;51.078;13.740;2023-08-07T08:36:00;22.30;46.60
14604;DHT22;7388;51.078;13.740;2023-08-07T08:38:25;22.20;46.60
14604;DHT22;7388;51.078;13.740;2023-08-07T08:41:00;22.10;46.30
14604;DHT22;7388;51.078;13.740;2023-08-07T08:43:30;22.00;47.10
14604;DHT22;7388;51.078;13.740;2023-08-07T08:45:58;22.10;47.10
14604;DHT22;7388;51.078;13.740;2023-08-07T08:48:24;22.10;47.00
14604;DHT22;7388;51.078;13.740;2023-08-07T08:50:52;22.20;46.70
14604;DHT22;7388;51.078;13.740;2023-08-07T08:53:20;22.30;47.50
14604;DHT22;7388;51.078;13.740;2023-08-07T08:55:46;22.40;45.80
14604;DHT22;7388;51.078;13.740;2023-08-07T08:58:16;22.50;46.10
14604;DHT22;7388;51.078;13.740;2023-08-07T09:00:43;22.50;46.70
14604;DHT22;7388;51.078;13.740;2023-08-07T09:03:10;22.60;46.80
14604;DHT22;7388;51.078;13.740;2023-08-07T09:05:37;22.60;45.00
14604;DHT22;7388;51.078;13.740;2023-08-07T09:08:03;22.70;45.80
14604;DHT22;7388;51.078;13.740;2023-08-07T09:10:29;22.70;46.80
14604;DHT22;7388;51.078;13.740;2023-08-07T09:13:03;22.80;45.20
14604;DHT22;7388;51.078;13.740;2023-08-07T09:15:32;22.80;45.30
14604;DHT22;7388;51.078;13.740;2023-08-07T09:17:58;22.80;45.20
14604;DHT22;7388;51.078;13.740;2023-08-07T09:20:25;22.80;45.70
14604;DHT22;7388;51.078;13.740;2023-08-07T09:22:51;22.90;45.60
14604;DHT22;7388;51.078;13.740;2023-08-07T09:25:35;23.10;45.30
14604;DHT22;7388;51.078;13.740;2023-08-07T09:28:02;23.30;44.50
14604;DHT22;7388;51.078;13.740;2023-08-07T09:30:35;23.40;44.50
14604;DHT22;7388;51.078;13.740;2023-08-07T09:33:03;23.40;44.70
14604;DHT22;7388;51.078;13.740;2023-08-07T09:35:30;23.40;44.30
14604;DHT22;7388;51.078;13.740;2023-08-07T09:37:58;23.40;43.20
14604;DHT22;7388;51.078;13.740;2023-08-07T09:40:23;23.40;42.50
14604;DHT22;7388;51.078;13.740;2023-08-07T09:42:53;23.30;44.00
14604;DHT22;7388;51.078;13.740;2023-08-07T09:45:26;23.40;42.90
14604;DHT22;7388;51.078;13.740;2023-08-07T09:47:59;23.40;42.20
14604;DHT22;7388;51.078;13.740;2023-08-07T09:50:26;23.40;42.10
14604;DHT22;7388;51.078;13.740;2023-08-07T09:52:52;23.30;43.00
14604;DHT22;7388;51.078;13.740;2023-08-07T09:55:19;23.20;42.90
14604;DHT22;7388;51.078;13.740;2023-08-07T09:57:45;23.20;42.10
14604;DHT22;7388;51.078;13.740;2023-08-07T10:00:12;23.10;42.60
14604;DHT22;7388;51.078;13.740;2023-08-07T10:02:40;23.20;42.30
14604;DHT22;7388;51.078;13.740;2023-08-07T10:05:06;23.30;43.60
14604;DHT22;7388;51.078;13.740;2023-08-07T10:07:34;23.40;43.00
14604;DHT22;7388;51.078;13.740;2023-08-07T10:10:02;23.50;43.60
14604;DHT22;7388;51.078;13.740;2023-08-07T10:12:28;23.50;41.50
14604;DHT22;7388;51.078;13.740;2023-08-07T10:14:55;23.30;41.50
14604;DHT22;7388;51.078;13.740;2023-08-07T10:17:22;23.30;42.60
14604;DHT22;7388;51.078;13.740;2023-08-07T10:19:48;23.20;43.30
14604;DHT22;7388;51.078;13.740;2023-08-07T10:22:15;23.10;43.50
14604;DHT22;7388;51.078;13.740;2023-08-07T10:24:43;23.10;43.50
14604;DHT22;7388;51.078;13.740;2023-08-07T10:27:11;23.20;42.40
14604;DHT22;7388;51.078;13.740;2023-08-07T10:29:38;23.10;42.70
14604;DHT22;7388;51.078;13.740;2023-08-07T10:32:06;23.10;43.40
14604;DHT22;7388;51.078;13.740;2023-08-07T10:34:33;23.10;43.20
14604;DHT22;7388;51.078;13.740;2023-08-07T10:37:00;23.00;43.90
14604;DHT22;7388;51.078;13.740;2023-08-07T10:39:26;22.80;45.60
14604;DHT22;7388;51.078;13.740;2023-08-07T10:41:55;22.70;46.60
14604;DHT22;7388;51.078;13.740;2023-08-07T10:44:23;22.60;47.90
14604;DHT22;7388;51.078;13.740;2023-08-07T10:46:55;22.80;49.00
14604;DHT22;7388;51.078;13.740;2023-08-07T10:49:38;22.90;49.10
14604;DHT22;7388;51.078;13.740;2023-08-07T10:52:15;23.10;48.20
14604;DHT22;7388;51.078;13.740;2023-08-07T10:54:48;23.20;47.10
14604;DHT22;7388;51.078;13.740;2023-08-07T10:57:16;23.20;46.80
14604;DHT22;7388;51.078;13.740;2023-08-07T11:00:02;23.00;47.20
14604;DHT22;7388;51.078;13.740;2023-08-07T11:02:31;22.00;47.50
14604;DHT22;7388;51.078;13.740;2023-08-07T11:04:59;22.90;49.10
14604;DHT22;7388;51.078;13.740;2023-08-07T11:07:29;23.00;50.00
14604;DHT22;7388;51.078;13.740;2023-08-07T11:09:56;23.20;49.70
14604;DHT22;7388;51.078;13.740;2023-08-07T11:12:26;23.30;48.30
14604;DHT22;7388;51.078;13.740;2023-08-07T11:14:52;23.30;47.30
14604;DHT22;7388;51.078;13.740;2023-08-07T11:17:26;23.30;46.90
14604;DHT22;7388;51.078;13.740;2023-08-07T11:19:53;23.30;45.70
14604;DHT22;7388;51.078;13.740;2023-08-07T11:22:19;23.30;45.70
14604;DHT22;7388;51.078;13.740;2023-08-07T11:24:46;23.30;45.60
14604;DHT22;7388;51.078;13.740;2023-08-07T11:27:12;23.30;44.80
14604;DHT22;7388;51.078;13.740;2023-08-07T11:29:38;23.30;45.20
14604;DHT22;7388;51.078;13.740;2023-08-07T11:32:05;23.30;44.70
14604;DHT22;7388;51.078;13.740;2023-08-07T11:34:31;23.20;44.10
14604;DHT22;7388;51.078;13.740;2023-08-07T11:36:57;23.10;44.30
14604;DHT22;7388;51.078;13.740;2023-08-07T11:39:23;22.90;46.60
14604;DHT22;7388;51.078;13.740;2023-08-07T11:41:51;22.80;47.20
14604;DHT22;7388;51.078;13.740;2023-08-07T11:44:18;22.70;47.90
14604;DHT22;7388;51.078;13.740;2023-08-07T11:46:44;22.50;48.60
14604;DHT22;7388;51.078;13.740;2023-08-07T11:49:10;22.40;49.00
14604;DHT22;7388;51.078;13.740;2023-08-07T11:51:37;22.30;49.70
14604;DHT22;7388;51.078;13.740;2023-08-07T11:54:03;22.20;50.00
14604;DHT22;7388;51.078;13.740;2023-08-07T11:56:29;22.20;50.80
14604;DHT22;7388;51.078;13.740;2023-08-07T11:58:57;22.20;50.80
14604;DHT22;7388;51.078;13.740;2023-08-07T12:01:24;22.20;51.40
14604;DHT22;7388;51.078;13.740;2023-08-07T12:04:24;22.20;51.80
14604;DHT22;7388;51.078;13.740;2023-08-07T12:06:56;22.20;51.70
14604;DHT22;7388;51.078;13.740;2023-08-07T12:09:22;22.30;51.30
14604;DHT22;7388;51.078;13.740;2023-08-07T12:11:48;22.20;51.90
14604;DHT22;7388;51.078;13.740;2023-08-07T12:14:14;22.30;53.60
14604;DHT22;7388;51.078;13.740;2023-08-07T12:16:44;22.40;54.00
14604;DHT22;7388;51.078;13.740;2023-08-07T12:19:13;22.80;55.70
14604;DHT22;7388;51.078;13.740;2023-08-07T12:21:40;23.00;55.20
14604;DHT22;7388;51.078;13.740;2023-08-07T12:24:07;23.30;55.70
14604;DHT22;7388;51.078;13.740;2023-08-07T12:26:33;23.50;53.10
14604;DHT22;7388;51.078;13.740;2023-08-07T12:28:59;23.50;52.70
14604;DHT22;7388;51.078;13.740;2023-08-07T12:31:25;23.50;51.60
14604;DHT22;7388;51.078;13.740;2023-08-07T12:33:51;23.40;51.20
14604;DHT22;7388;51.078;13.740;2023-08-07T12:36:16;23.30;49.10
14604;DHT22;7388;51.078;13.740;2023-08-07T12:38:42;23.20;48.60
14604;DHT22;7388;51.078;13.740;2023-08-07T12:41:08;23.00;48.50
14604;DHT22;7388;51.078;13.740;2023-08-07T12:43:34;23.00;48.60
14604;DHT22;7388;51.078;13.740;2023-08-07T12:45:59;22.90;49.60
14604;DHT22;7388;51.078;13.740;2023-08-07T12:48:26;22.90;50.00
14604;DHT22;7388;51.078;13.740;2023-08-07T12:50:54;22.80;49.40
14604;DHT22;7388;51.078;13.740;2023-08-07T12:53:19;22.80;50.20
14604;DHT22;7388;51.078;13.740;2023-08-07T12:55:45;22.80;49.60
14604;DHT22;7388;51.078;13.740;2023-08-07T12:58:11;22.80;50.10
14604;DHT22;7388;51.078;13.740;2023-08-07T13:00:37;22.80;50.10
14604;DHT22;7388;51.078;13.740;2023-08-07T13:03:03;22.80;50.80
14604;DHT22;7388;51.078;13.740;2023-08-07T13:05:29;22.90;51.40
14604;DHT22;7388;51.078;13.740;2023-08-07T13:07:58;22.90;50.40
14604;DHT22;7388;51.078;13.740;2023-08-07T13:10:24;22.90;49.60
14604;DHT22;7388;51.078;13.740;2023-08-07T13:12:53;22.80;49.50
14604;DHT22;7388;51.078;13.740;2023-08-07T13:15:20;22.60;50.40
14604;DHT22;7388;51.078;13.740;2023-08-07T13:17:46;22.50;50.70
14604;DHT22;7388;51.078;13.740;2023-08-07T13:20:13;22.50;51.80
14604;DHT22;7388;51.078;13.740;2023-08-07T13:22:40;22.60;52.80
14604;DHT22;7388;51.078;13.740;2023-08-07T13:25:08;22.70;52.60
14604;DHT22;7388;51.078;13.740;2023-08-07T13:27:34;22.80;52.50
14604;DHT22;7388;51.078;13.740;2023-08-07T13:30:01;22.90;51.70
14604;DHT22;7388;51.078;13.740;2023-08-07T13:32:27;22.90;51.60
14604;DHT22;7388;51.078;13.740;2023-08-07T13:34:53;23.00;51.30
14604;DHT22;7388;51.078;13.740;2023-08-07T13:37:20;23.00;50.30
14604;DHT22;7388;51.078;13.740;2023-08-07T13:39:46;23.00;50.80
14604;DHT22;7388;51.078;13.740;2023-08-07T13:42:15;23.10;50.30
14604;DHT22;7388;51.078;13.740;2023-08-07T13:44:41;23.10;48.20
14604;DHT22;7388;51.078;13.740;2023-08-07T13:47:07;23.00;46.80
14604;DHT22;7388;51.078;13.740;2023-08-07T13:49:33;22.90;47.40
14604;DHT22;7388;51.078;13.740;2023-08-07T13:51:59;22.80;47.80
14604;DHT22;7388;51.078;13.740;2023-08-07T13:54:25;22.60;48.00
14604;DHT22;7388;51.078;13.740;2023-08-07T13:56:51;22.50;48.40
14604;DHT22;7388;51.078;13.740;2023-08-07T13:59:17;22.50;49.60
14604;DHT22;7388;51.078;13.740;2023-08-07T14:01:43;22.40;49.20
14604;DHT22;7388;51.078;13.740;2023-08-07T14:04:08;22.40;49.30
14604;DHT22;7388;51.078;13.740;2023-08-07T14:06:34;22.30;50.50
14604;DHT22;7388;51.078;13.740;2023-08-07T14:09:00;22.20;50.60
14604;DHT22;7388;51.078;13.740;2023-08-07T14:11:26;22.20;51.10
14604;DHT22;7388;51.078;13.740;2023-08-07T14:13:58;22.00;50.80
14604;DHT22;7388;51.078;13.740;2023-08-07T14:16:25;21.90;50.80
14604;DHT22;7388;51.078;13.740;2023-08-07T14:18:51;21.80;51.00
14604;DHT22;7388;51.078;13.740;2023-08-07T14:21:17;21.60;51.30
14604;DHT22;7388;51.078;13.740;2023-08-07T14:23:43;21.50;52.10
14604;DHT22;7388;51.078;13.740;2023-08-07T14:26:11;21.40;52.50
14604;DHT22;7388;51.078;13.740;2023-08-07T14:28:37;21.40;52.70
14604;DHT22;7388;51.078;13.740;2023-08-07T14:31:07;21.40;53.00
14604;DHT22;7388;51.078;13.740;2023-08-07T14:33:33;21.40;53.00
14604;DHT22;7388;51.078;13.740;2023-08-07T14:35:59;21.30;53.00
14604;DHT22;7388;51.078;13.740;2023-08-07T14:38:26;21.40;53.40
14604;DHT22;7388;51.078;13.740;2023-08-07T14:40:52;21.40;53.80
14604;DHT22;7388;51.078;13.740;2023-08-07T14:43:18;21.50;54.30
14604;DHT22;7388;51.078;13.740;2023-08-07T14:45:44;21.60;54.40
14604;DHT22;7388;51.078;13.740;2023-08-07T14:48:10;21.70;54.80
14604;DHT22;7388;51.078;13.740;2023-08-07T14:50:35;21.90;54.90
14604;DHT22;7388;51.078;13.740;2023-08-07T14:53:01;22.00;54.40
14604;DHT22;7388;51.078;13.740;2023-08-07T14:55:27;22.10;54.20
14604;DHT22;7388;51.078;13.740;2023-08-07T14:57:53;22.20;54.10
14604;DHT22;7388;51.078;13.740;2023-08-07T15:00:19;22.20;54.10
14604;DHT22;7388;51.078;13.740;2023-08-07T15:02:46;22.20;54.20
14604;DHT22;7388;51.078;13.740;2023-08-07T15:05:13;22.30;54.10
14604;DHT22;7388;51.078;13.740;2023-08-07T15:07:39;22.30;54.10
14604;DHT22;7388;51.078;13.740;2023-08-07T15:10:05;22.40;54.00
14604;DHT22;7388;51.078;13.740;2023-08-07T15:12:31;22.40;53.60
14604;DHT22;7388;51.078;13.740;2023-08-07T15:14:57;22.40;52.80
14604;DHT22;7388;51.078;13.740;2023-08-07T15:17:23;22.40;52.30
14604;DHT22;7388;51.078;13.740;2023-08-07T15:19:48;22.20;51.70
14604;DHT22;7388;51.078;13.740;2023-08-07T15:22:14;22.10;51.50
14604;DHT22;7388;51.078;13.740;2023-08-07T15:24:41;21.90;52.10
14604;DHT22;7388;51.078;13.740;2023-08-07T15:27:07;21.80;51.90
14604;DHT22;7388;51.078;13.740;2023-08-07T15:29:33;21.70;52.10
14604;DHT22;7388;51.078;13.740;2023-08-07T15:31:58;21.60;51.70